createdAt,value
2023-03-05T00:01:31.035Z,64.73
2023-03-05T00:03:59.194Z,64.86
2023-03-05T00:06:29.138Z,64.84
2023-03-05T00:08:58.600Z,64.62
2023-03-05T00:11:30.168Z,64.86
2023-03-05T00:13:58.777Z,64.80
2023-03-05T00:16:27.622Z,64.83
2023-03-05T00:18:56.338Z,64.90
2023-03-05T00:21:32.781Z,65.06
2023-03-05T00:24:01.724Z,64.87
2023-03-05T00:26:30.449Z,64.14
2023-03-05T00:28:58.376Z,64.53
2023-03-05T00:31:31.064Z,65.15
2023-03-05T00:34:01.032Z,64.84
2023-03-05T00:36:29.494Z,64.86
2023-03-05T00:38:57.473Z,65.45
2023-03-05T00:41:25.314Z,65.09
2023-03-05T00:43:52.930Z,65.38
2023-03-05T00:46:20.553Z,64.99
2023-03-05T00:48:48.108Z,65.48
2023-03-05T00:51:15.859Z,65.41
2023-03-05T00:53:43.459Z,65.65
2023-03-05T00:56:11.126Z,65.63
2023-03-05T00:58:38.939Z,65.83
2023-03-05T01:01:06.929Z,65.50
2023-03-05T01:03:35.862Z,65.23
2023-03-05T01:06:09.891Z,65.63
2023-03-05T01:08:37.703Z,65.47
2023-03-05T01:11:06.721Z,65.56
2023-03-05T01:13:34.681Z,65.48
2023-03-05T01:16:03.048Z,65.73
2023-03-05T01:18:30.926Z,65.38
2023-03-05T01:20:58.559Z,65.33
2023-03-05T01:23:26.619Z,65.50
2023-03-05T01:25:58.791Z,64.82
2023-03-05T01:28:28.667Z,65.08
2023-03-05T01:30:56.254Z,64.96
2023-03-05T01:33:23.858Z,65.18
2023-03-05T01:35:51.691Z,65.06
2023-03-05T01:38:19.627Z,64.85
2023-03-05T01:40:47.279Z,65.06
2023-03-05T01:43:28.670Z,65.20
2023-03-05T01:46:27.152Z,65.51
2023-03-05T01:49:01.049Z,65.37
2023-03-05T01:51:33.596Z,65.59
2023-03-05T01:54:03.380Z,64.92
2023-03-05T01:56:31.206Z,65.10
2023-03-05T01:59:03.675Z,65.16
2023-03-05T02:01:39.717Z,65.70
2023-03-05T02:04:10.476Z,65.78
2023-03-05T02:06:41.231Z,66.09
2023-03-05T02:09:09.716Z,65.38
2023-03-05T02:11:37.596Z,65.42
2023-03-05T02:14:09.036Z,65.96
2023-03-05T02:16:38.924Z,66.10
2023-03-05T02:19:09.238Z,65.75
2023-03-05T02:21:42.414Z,65.99
2023-03-05T02:24:19.955Z,66.30
2023-03-05T02:26:47.663Z,66.32
2023-03-05T02:29:19.631Z,65.89
2023-03-05T02:31:47.265Z,65.99
2023-03-05T02:34:15.444Z,65.75
2023-03-05T02:36:42.992Z,65.73
2023-03-05T02:39:11.045Z,66.25
2023-03-05T02:41:38.701Z,65.93
2023-03-05T02:44:06.570Z,66.08
2023-03-05T02:46:34.468Z,66.18
2023-03-05T02:49:01.962Z,66.39
2023-03-05T02:51:31.496Z,66.55
2023-03-05T02:53:59.806Z,66.44
2023-03-05T02:56:29.265Z,66.60
2023-03-05T02:58:56.901Z,66.25
2023-03-05T03:01:28.096Z,66.41
2023-03-05T03:03:59.464Z,66.41
2023-03-05T03:06:27.177Z,66.36
2023-03-05T03:08:54.968Z,66.83
2023-03-05T03:11:22.610Z,67.06
2023-03-05T03:13:50.101Z,66.85
2023-03-05T03:16:17.688Z,67.13
2023-03-05T03:18:47.680Z,66.85
2023-03-05T03:21:20.803Z,67.21
2023-03-05T03:23:48.480Z,67.08
2023-03-05T03:26:17.506Z,66.75
2023-03-05T03:28:46.687Z,66.86
2023-03-05T03:31:14.701Z,67.30
2023-03-05T03:33:42.600Z,67.18
2023-03-05T03:36:11.138Z,67.26
2023-03-05T03:38:38.752Z,67.38
2023-03-05T03:41:08.093Z,67.11
2023-03-05T03:43:39.057Z,67.23
2023-03-05T03:46:07.824Z,67.40
2023-03-05T03:48:37.233Z,67.33
2023-03-05T03:51:07.048Z,67.66
2023-03-05T03:53:34.769Z,67.57
2023-03-05T03:56:05.138Z,67.66
2023-03-05T03:58:32.840Z,68.01
2023-03-05T04:01:03.782Z,67.75
2023-03-05T04:03:32.303Z,67.97
2023-03-05T04:06:01.746Z,67.72
2023-03-05T04:08:29.451Z,68.08
2023-03-05T04:11:01.188Z,68.72
2023-03-05T04:13:29.312Z,68.48
2023-03-05T04:15:57.136Z,68.36
2023-03-05T04:18:25.058Z,68.40
2023-03-05T04:20:54.801Z,68.21
2023-03-05T04:23:22.363Z,67.55
2023-03-05T04:25:49.867Z,67.76
2023-03-05T04:28:18.000Z,67.68
2023-03-05T04:30:45.739Z,67.78
2023-03-05T04:33:13.653Z,67.67
2023-03-05T04:35:41.582Z,67.88
2023-03-05T04:38:09.781Z,67.67
2023-03-05T04:40:39.778Z,67.20
2023-03-05T04:43:07.655Z,67.16
2023-03-05T04:45:35.702Z,66.90
2023-03-05T04:48:03.556Z,67.28
2023-03-05T04:50:31.685Z,67.34
2023-03-05T04:53:00.767Z,67.29
2023-03-05T04:55:28.289Z,67.07
2023-03-05T04:57:56.931Z,67.37
2023-03-05T05:00:25.090Z,67.20
2023-03-05T05:02:53.103Z,66.45
2023-03-05T05:05:24.058Z,66.84
2023-03-05T05:07:56.469Z,66.81
2023-03-05T05:10:28.352Z,66.83
2023-03-05T05:12:56.082Z,66.24
2023-03-05T05:15:24.024Z,66.19
2023-03-05T05:17:52.649Z,65.72
2023-03-05T05:20:22.127Z,66.17
2023-03-05T05:22:49.671Z,65.86
2023-03-05T05:25:17.201Z,65.35
2023-03-05T05:27:44.811Z,65.04
2023-03-05T05:30:13.381Z,64.56
2023-03-05T05:33:37.157Z,64.61
2023-03-05T05:36:42.341Z,64.41
2023-03-05T05:44:43.300Z,63.62
2023-03-05T05:47:11.236Z,63.96
2023-03-05T05:49:38.847Z,64.02
2023-03-05T05:52:08.910Z,63.98
2023-03-05T05:54:36.526Z,63.99
2023-03-05T05:57:04.237Z,64.25
2023-03-05T05:59:31.740Z,64.75
2023-03-05T06:01:59.725Z,64.85
2023-03-05T06:04:27.482Z,64.83
2023-03-05T06:06:55.136Z,64.58
2023-03-05T06:09:23.750Z,64.42
2023-03-05T06:11:51.733Z,63.71
2023-03-05T06:14:19.216Z,64.12
2023-03-05T06:16:48.263Z,64.72
2023-03-05T06:19:16.404Z,63.98
2023-03-05T06:21:43.956Z,64.09
2023-03-05T06:24:13.579Z,63.83
2023-03-05T06:26:41.608Z,64.32
2023-03-05T06:29:09.127Z,64.16
2023-03-05T06:31:39.246Z,64.29
2023-03-05T06:34:07.833Z,64.05
2023-03-05T06:36:35.390Z,64.27
2023-03-05T06:39:04.735Z,64.42
2023-03-05T06:41:33.170Z,64.25
2023-03-05T06:44:05.099Z,64.06
2023-03-05T06:46:37.631Z,64.27
2023-03-05T06:49:05.743Z,63.87
2023-03-05T06:51:39.771Z,63.64
2023-03-05T06:54:13.471Z,63.61
2023-03-05T06:56:45.024Z,62.80
2023-03-05T06:59:15.410Z,63.07
2023-03-05T07:01:44.351Z,63.43
2023-03-05T07:04:12.972Z,63.27
2023-03-05T07:06:44.703Z,63.36
2023-03-05T07:09:15.881Z,63.36
2023-03-05T07:11:44.088Z,63.15
2023-03-05T07:14:11.703Z,62.91
2023-03-05T07:16:39.458Z,63.18
2023-03-05T07:19:08.090Z,62.97
2023-03-05T07:21:39.108Z,62.70
2023-03-05T07:24:08.844Z,62.90
2023-03-05T07:26:41.113Z,62.93
2023-03-05T07:29:08.726Z,62.89
2023-03-05T07:31:36.252Z,62.84
2023-03-05T07:34:06.643Z,63.05
2023-03-05T07:36:35.138Z,62.57
2023-03-05T07:39:05.070Z,62.77
2023-03-05T07:41:33.302Z,62.75
2023-03-05T07:44:00.789Z,62.71
2023-03-05T07:46:31.216Z,63.02
2023-03-05T07:48:59.007Z,63.03
2023-03-05T07:51:27.673Z,62.92
2023-03-05T07:53:57.666Z,62.84
2023-03-05T07:56:29.975Z,62.75
2023-03-05T07:59:02.596Z,62.46
2023-03-05T08:01:31.841Z,62.96
2023-03-05T08:03:59.811Z,62.60
2023-03-05T08:06:27.957Z,62.54
2023-03-05T08:08:55.793Z,62.16
2023-03-05T08:11:23.353Z,62.23
2023-03-05T08:13:51.388Z,61.99
2023-03-05T08:16:21.880Z,62.13
2023-03-05T08:18:50.138Z,61.95
2023-03-05T08:21:26.938Z,61.66
2023-03-05T08:23:54.491Z,61.41
2023-03-05T08:26:25.308Z,61.43
2023-03-05T08:28:53.120Z,61.40
2023-03-05T08:31:23.043Z,61.46
2023-03-05T08:33:54.070Z,61.01
2023-03-05T08:36:22.381Z,61.33
2023-03-05T08:38:52.879Z,61.11
2023-03-05T08:41:21.284Z,61.39
2023-03-05T08:43:48.992Z,60.92
2023-03-05T08:46:18.241Z,61.51
2023-03-05T08:48:46.099Z,61.44
2023-03-05T08:51:19.230Z,61.21
2023-03-05T08:53:48.931Z,61.30
2023-03-05T08:56:18.853Z,61.48
2023-03-05T08:58:48.423Z,61.26
2023-03-05T09:01:15.927Z,61.06
2023-03-05T09:03:43.881Z,61.53
2023-03-05T09:06:13.076Z,61.53
2023-03-05T09:08:40.904Z,61.64
2023-03-05T09:11:14.283Z,61.59
2023-03-05T09:13:42.067Z,61.60
2023-03-05T09:16:15.541Z,61.67
2023-03-05T09:18:44.464Z,62.09
2023-03-05T09:21:17.485Z,62.20
2023-03-05T09:23:50.098Z,61.84
2023-03-05T09:26:21.694Z,61.69
2023-03-05T09:28:49.274Z,62.05
2023-03-05T09:31:17.308Z,61.60
2023-03-05T09:33:45.019Z,61.42
2023-03-05T09:39:38.603Z,61.26
2023-03-05T09:42:29.796Z,60.71
2023-03-05T09:45:15.641Z,61.01
2023-03-05T09:48:01.634Z,60.68
2023-03-05T09:50:32.506Z,60.66
2023-03-05T09:53:17.541Z,60.63
2023-03-05T09:55:50.669Z,60.74
2023-03-05T09:58:46.230Z,61.15
2023-03-05T10:01:17.038Z,61.06
2023-03-05T10:04:04.405Z,61.12
2023-03-05T10:06:36.921Z,60.58
2023-03-05T10:09:14.691Z,61.17
2023-03-05T10:11:55.246Z,61.12
2023-03-05T10:14:55.497Z,61.49
2023-03-05T10:18:01.705Z,61.44
2023-03-05T10:20:50.410Z,61.16
2023-03-05T10:24:03.080Z,61.59
2023-03-05T10:26:58.509Z,62.28
2023-03-05T10:29:35.182Z,61.49
2023-03-05T10:32:09.522Z,61.36
2023-03-05T10:34:49.611Z,61.42
2023-03-05T10:37:48.778Z,61.49
2023-03-05T10:40:37.443Z,61.28
2023-03-05T10:43:20.874Z,61.39
2023-03-05T10:45:50.723Z,61.34
2023-03-05T10:48:42.271Z,61.11
2023-03-05T10:51:19.771Z,60.96
2023-03-05T10:53:58.278Z,60.60
2023-03-05T10:56:29.086Z,60.19
2023-03-05T10:58:56.972Z,60.18
2023-03-05T11:01:28.228Z,60.37
2023-03-05T11:04:00.735Z,60.42
2023-03-05T11:06:31.483Z,60.28
2023-03-05T11:09:24.573Z,60.39
2023-03-05T11:12:08.983Z,60.51
2023-03-05T11:14:40.073Z,60.69
2023-03-05T11:17:28.549Z,61.29
2023-03-05T11:20:17.192Z,60.90
2023-03-05T11:23:15.862Z,60.48
2023-03-05T11:25:54.246Z,60.77
2023-03-05T11:28:33.250Z,60.36
2023-03-05T11:31:16.676Z,60.55
2023-03-05T11:34:01.169Z,60.32
2023-03-05T11:36:30.799Z,60.22
2023-03-05T11:39:07.823Z,60.65
2023-03-05T11:41:40.239Z,60.27
2023-03-05T11:44:23.941Z,59.48
2023-03-05T11:46:55.972Z,58.87
2023-03-05T11:49:34.089Z,58.50
2023-03-05T11:52:18.501Z,58.24
2023-03-05T11:55:14.822Z,57.80
2023-03-05T11:58:20.783Z,57.87
2023-03-05T12:00:49.256Z,58.12
2023-03-05T12:03:21.335Z,57.85
2023-03-05T12:05:54.054Z,57.91
2023-03-05T12:08:28.117Z,58.13
2023-03-05T12:10:56.817Z,59.14
2023-03-05T12:13:34.749Z,59.05
2023-03-05T12:16:24.455Z,59.76
2023-03-05T12:19:07.808Z,59.42
2023-03-05T12:21:41.295Z,59.74
2023-03-05T12:24:27.460Z,59.30
2023-03-05T12:27:04.865Z,59.83
2023-03-05T12:29:45.968Z,59.69
2023-03-05T12:32:22.639Z,59.74
2023-03-05T12:34:58.136Z,59.69
2023-03-05T12:37:25.783Z,59.55
2023-03-05T12:40:08.738Z,59.56
2023-03-05T12:42:39.339Z,59.16
2023-03-05T12:45:09.935Z,59.73
2023-03-05T12:47:42.132Z,59.54
2023-03-05T12:50:28.307Z,58.83
2023-03-05T12:53:18.434Z,58.84
2023-03-05T12:55:51.219Z,59.10
2023-03-05T12:58:43.035Z,59.38
2023-03-05T13:01:32.198Z,59.30
2023-03-05T13:04:11.233Z,59.04
2023-03-05T13:06:39.663Z,58.94
2023-03-05T13:09:19.008Z,58.87
2023-03-05T13:11:51.303Z,58.99
2023-03-05T13:14:31.676Z,59.11
2023-03-05T13:17:00.629Z,59.14
2023-03-05T13:19:29.843Z,59.30
2023-03-05T13:22:02.702Z,59.23
2023-03-05T13:24:31.213Z,59.43
2023-03-05T13:26:58.796Z,59.58
2023-03-05T13:29:31.327Z,58.80
2023-03-05T13:32:01.767Z,59.13
2023-03-05T13:34:47.337Z,58.93
2023-03-05T13:37:20.843Z,59.04
2023-03-05T13:39:50.337Z,59.43
2023-03-05T13:42:21.221Z,59.34
2023-03-05T13:45:00.758Z,59.47
2023-03-05T13:47:32.079Z,59.72
2023-03-05T13:50:02.219Z,59.58
2023-03-05T13:52:34.107Z,60.08
2023-03-05T13:55:04.568Z,60.19
2023-03-05T13:57:43.710Z,61.31
2023-03-05T14:00:31.773Z,61.67
2023-03-05T14:03:01.429Z,61.25
2023-03-05T14:05:31.582Z,60.66
2023-03-05T14:07:59.303Z,60.96
2023-03-05T14:10:34.750Z,61.54
2023-03-05T14:13:13.674Z,61.20
2023-03-05T14:15:41.441Z,61.38
2023-03-05T14:18:12.111Z,61.60
2023-03-05T14:20:41.958Z,61.60
2023-03-05T14:23:35.933Z,62.13
2023-03-05T14:26:28.325Z,61.89
2023-03-05T14:29:00.538Z,61.51
2023-03-05T14:31:31.155Z,61.25
2023-03-05T14:34:07.467Z,61.41
2023-03-05T14:36:35.653Z,61.40
2023-03-05T14:39:03.530Z,61.34
2023-03-05T14:41:34.422Z,61.54
2023-03-05T14:44:02.826Z,61.21
2023-03-05T14:46:31.360Z,61.27
2023-03-05T14:48:59.196Z,61.28
2023-03-05T14:51:26.966Z,61.05
2023-03-05T14:53:55.167Z,60.96
2023-03-05T14:56:26.270Z,60.75
2023-03-05T14:58:54.684Z,60.40
2023-03-05T15:01:22.223Z,60.42
2023-03-05T15:03:50.092Z,60.43
2023-03-05T15:06:30.304Z,60.13
2023-03-05T15:08:57.827Z,59.80
2023-03-05T15:11:25.604Z,59.93
2023-03-05T15:13:53.079Z,59.60
2023-03-05T15:16:21.529Z,59.38
2023-03-05T15:18:49.432Z,59.37
2023-03-05T15:21:16.958Z,59.02
2023-03-05T15:23:45.467Z,59.35
2023-03-05T15:26:15.152Z,58.96
2023-03-05T15:28:43.390Z,58.80
2023-03-05T15:31:11.598Z,58.82
2023-03-05T15:33:41.889Z,59.24
2023-03-05T15:36:10.041Z,59.25
2023-03-05T15:38:39.066Z,59.24
2023-03-05T15:41:07.527Z,58.73
2023-03-05T15:43:35.360Z,58.59
2023-03-05T15:46:06.262Z,58.63
2023-03-05T15:48:34.023Z,58.82
2023-03-05T15:51:06.277Z,58.67
2023-03-05T15:53:33.774Z,58.37
2023-03-05T15:56:01.365Z,58.32
2023-03-05T15:58:28.907Z,58.32
2023-03-05T16:00:56.699Z,58.23
2023-03-05T16:03:24.438Z,58.68
2023-03-05T16:05:52.004Z,58.40
2023-03-05T16:08:22.098Z,58.26
2023-03-05T16:10:51.764Z,58.12
2023-03-05T16:13:21.672Z,58.43
2023-03-05T16:15:53.393Z,57.82
2023-03-05T16:18:21.865Z,57.65
2023-03-05T16:20:49.877Z,57.79
2023-03-05T16:23:17.518Z,58.09
2023-03-05T16:25:47.782Z,58.06
2023-03-05T16:28:15.705Z,58.13
2023-03-05T16:30:43.946Z,58.29
2023-03-05T16:33:11.557Z,58.32
2023-03-05T16:35:39.323Z,58.18
2023-03-05T16:38:08.537Z,58.21
2023-03-05T16:41:06.017Z,58.25
2023-03-05T16:43:28.074Z,57.98
2023-03-05T16:45:55.597Z,57.82
2023-03-05T16:48:23.364Z,57.79
2023-03-05T16:50:50.943Z,57.71
2023-03-05T16:53:20.022Z,58.00
2023-03-05T16:55:47.822Z,57.66
2023-03-05T16:58:15.389Z,57.53
2023-03-05T17:00:43.315Z,57.56
2023-03-05T17:03:10.841Z,57.36
2023-03-05T17:05:40.045Z,57.53
2023-03-05T17:08:08.371Z,57.74
2023-03-05T17:10:35.980Z,58.01
2023-03-05T17:13:04.882Z,57.82
2023-03-05T17:15:33.626Z,57.50
2023-03-05T17:18:01.402Z,57.85
2023-03-05T17:20:29.421Z,58.02
2023-03-05T17:22:56.917Z,57.78
2023-03-05T17:25:24.421Z,57.57
2023-03-05T17:27:52.520Z,57.86
2023-03-05T17:30:23.055Z,57.67
2023-03-05T17:32:53.900Z,57.84
2023-03-05T17:35:22.819Z,58.14
2023-03-05T17:37:51.817Z,58.10
2023-03-05T17:40:19.474Z,57.96
2023-03-05T17:42:46.952Z,58.35
2023-03-05T17:45:14.778Z,58.47
2023-03-05T17:47:42.777Z,58.18
2023-03-05T17:50:11.324Z,58.21
2023-03-05T17:52:41.098Z,58.28
2023-03-05T17:55:10.867Z,58.25
2023-03-05T17:57:43.856Z,58.51
2023-03-05T18:00:24.440Z,58.27
2023-03-05T18:02:52.421Z,58.43
2023-03-05T18:05:22.015Z,58.43
2023-03-05T18:07:50.233Z,58.68
2023-03-05T18:10:19.654Z,58.44
2023-03-05T18:12:48.206Z,57.94
2023-03-05T18:15:17.758Z,58.05
2023-03-05T18:17:45.392Z,57.71
2023-03-05T18:20:25.112Z,57.28
2023-03-05T18:22:53.178Z,57.71
2023-03-05T18:25:20.796Z,57.46
2023-03-05T18:27:48.684Z,57.61
2023-03-05T18:30:16.247Z,57.76
2023-03-05T18:32:45.031Z,57.60
2023-03-05T18:35:14.173Z,57.38
2023-03-05T18:37:41.884Z,57.20
2023-03-05T18:40:14.702Z,57.05
2023-03-05T18:42:43.993Z,57.06
2023-03-05T18:45:14.441Z,57.57
2023-03-05T18:47:44.748Z,57.18
2023-03-05T18:50:15.081Z,57.55
2023-03-05T18:52:48.142Z,58.21
2023-03-05T18:55:18.063Z,58.24
2023-03-05T18:57:45.837Z,58.24
2023-03-05T19:00:16.038Z,58.46
2023-03-05T19:02:43.756Z,58.67
2023-03-05T19:05:13.456Z,58.91
2023-03-05T19:07:42.017Z,59.08
2023-03-05T19:10:12.394Z,59.62
2023-03-05T19:13:32.239Z,59.68
2023-03-05T19:16:14.201Z,60.07
2023-03-05T19:19:20.495Z,60.34
2023-03-05T19:22:06.637Z,60.56
2023-03-05T19:24:34.673Z,59.83
2023-03-05T19:27:10.159Z,60.33
2023-03-05T19:29:38.492Z,60.17
2023-03-05T19:32:08.874Z,60.83
2023-03-05T19:34:37.164Z,60.89
2023-03-05T19:37:08.115Z,61.03
2023-03-05T19:39:36.415Z,61.06
2023-03-05T19:42:04.622Z,61.45
2023-03-05T19:44:32.235Z,61.83
2023-03-05T19:47:00.050Z,61.85
2023-03-05T19:49:27.686Z,61.63
2023-03-05T19:51:55.831Z,61.88
2023-03-05T19:54:24.793Z,61.84
2023-03-05T19:56:54.962Z,61.65
2023-03-05T19:59:24.991Z,61.90
2023-03-05T20:01:53.743Z,61.47
2023-03-05T20:04:22.810Z,61.72
2023-03-05T20:06:51.254Z,61.31
2023-03-05T20:09:18.913Z,61.75
2023-03-05T20:11:47.260Z,62.04
2023-03-05T20:14:14.888Z,61.84
2023-03-05T20:16:43.638Z,62.37
2023-03-05T20:19:16.450Z,62.54
2023-03-05T20:21:45.113Z,62.54
2023-03-05T20:24:15.872Z,62.68
2023-03-05T20:26:45.453Z,62.34
2023-03-05T20:29:17.514Z,61.82
2023-03-05T20:31:46.488Z,62.50
2023-03-05T20:34:16.679Z,62.64
2023-03-05T20:36:44.880Z,62.86
2023-03-05T20:39:12.704Z,62.94
2023-03-05T20:41:40.966Z,63.09
2023-03-05T20:44:08.945Z,63.49
2023-03-05T20:47:09.990Z,63.63
2023-03-05T20:49:43.993Z,63.37
2023-03-05T20:52:11.553Z,63.37
2023-03-05T20:54:39.024Z,63.62
2023-03-05T20:57:06.576Z,63.93
2023-03-05T20:59:34.088Z,64.13
2023-03-05T21:02:01.717Z,64.30
2023-03-05T21:04:29.274Z,64.11
2023-03-05T21:06:58.051Z,64.21
2023-03-05T21:09:28.379Z,64.94
2023-03-05T21:11:55.973Z,64.54
2023-03-05T21:14:23.624Z,65.44
2023-03-05T21:16:51.113Z,64.92
2023-03-05T21:19:18.658Z,64.73
2023-03-05T21:21:46.208Z,64.67
2023-03-05T21:24:48.504Z,64.55
2023-03-05T21:27:37.299Z,64.54
2023-03-05T21:30:05.588Z,64.65
2023-03-05T21:32:33.255Z,64.52
2023-03-05T21:35:00.873Z,64.56
2023-03-05T21:37:28.362Z,64.69
2023-03-05T21:39:55.847Z,64.61
2023-03-05T21:42:23.343Z,64.82
2023-03-05T21:44:50.964Z,64.65
2023-03-05T21:47:18.536Z,64.61
2023-03-05T21:49:46.216Z,64.65
2023-03-05T21:52:13.893Z,65.09
2023-03-05T21:54:42.468Z,64.99
2023-03-05T21:57:11.620Z,65.06
2023-03-05T21:59:42.920Z,64.72
2023-03-05T22:02:16.287Z,65.07
2023-03-05T22:04:46.923Z,64.89
2023-03-05T22:07:16.439Z,64.81
2023-03-05T22:09:44.764Z,64.88
2023-03-05T22:13:14.960Z,65.28
2023-03-05T22:15:56.957Z,64.99
2023-03-05T22:18:30.353Z,64.49
2023-03-05T22:20:59.258Z,64.68
2023-03-05T22:23:30.992Z,64.68
2023-03-05T22:26:01.290Z,64.74
2023-03-05T22:28:29.547Z,64.78
2023-03-05T22:30:57.064Z,64.74
2023-03-05T22:33:24.928Z,65.13
2023-03-05T22:35:52.629Z,64.84
2023-03-05T22:38:20.348Z,64.48
2023-03-05T22:40:49.596Z,64.87
2023-03-05T22:43:18.873Z,64.65
2023-03-05T22:45:46.428Z,64.69
2023-03-05T22:48:14.726Z,64.57
2023-03-05T22:50:44.018Z,64.65
2023-03-05T22:53:12.420Z,64.81
2023-03-05T22:55:41.361Z,65.08
2023-03-05T22:58:11.036Z,65.03
2023-03-05T23:00:38.656Z,64.90
2023-03-05T23:03:08.906Z,64.72
2023-03-05T23:05:39.046Z,64.86
2023-03-05T23:08:07.823Z,64.61
2023-03-05T23:10:35.516Z,64.78
2023-03-05T23:13:03.016Z,64.89
2023-03-05T23:15:38.288Z,65.29
2023-03-05T23:18:09.024Z,64.78
2023-03-05T23:20:37.845Z,64.97
2023-03-05T23:23:05.436Z,65.14
2023-03-05T23:25:34.564Z,65.29
2023-03-05T23:28:03.864Z,64.96
2023-03-05T23:30:34.667Z,65.02
2023-03-05T23:33:02.276Z,64.97
2023-03-05T23:35:33.442Z,65.10
2023-03-05T23:38:05.810Z,65.11
2023-03-05T23:40:43.576Z,64.74
2023-03-05T23:43:11.665Z,64.66
2023-03-05T23:45:45.374Z,64.80
2023-03-05T23:48:12.867Z,64.84
2023-03-05T23:50:43.017Z,64.50
2023-03-05T23:53:11.073Z,64.45
2023-03-05T23:55:43.963Z,64.69
2023-03-05T23:58:11.890Z,64.40
